createdAt,value
2018-07-21T00:01:07.751Z,63.40
2018-07-21T00:03:34.082Z,63.15
2018-07-21T00:06:00.439Z,63.49
2018-07-21T00:08:26.752Z,63.29
2018-07-21T00:10:53.070Z,63.26
2018-07-21T00:13:19.417Z,63.35
2018-07-21T00:15:45.754Z,63.41
2018-07-21T00:18:12.052Z,63.41
2018-07-21T00:20:38.370Z,63.41
2018-07-21T00:23:04.685Z,63.55
2018-07-21T00:25:31.000Z,63.54
2018-07-21T00:27:57.311Z,63.72
2018-07-21T00:30:23.667Z,64.03
2018-07-21T00:32:49.977Z,64.38
2018-07-21T00:35:16.290Z,64.42
2018-07-21T00:37:42.605Z,64.69
2018-07-21T00:40:08.915Z,64.85
2018-07-21T00:42:35.229Z,65.33
2018-07-21T00:45:01.539Z,65.65
2018-07-21T00:47:27.849Z,65.88
2018-07-21T00:49:54.194Z,66.09
2018-07-21T00:52:20.508Z,66.65
2018-07-21T00:54:46.815Z,66.94
2018-07-21T00:57:13.218Z,67.44
2018-07-21T00:59:39.439Z,67.93
2018-07-21T01:02:05.768Z,68.28
2018-07-21T01:04:32.084Z,68.38
2018-07-21T01:06:58.428Z,68.56
2018-07-21T01:09:24.736Z,68.89
2018-07-21T01:11:51.048Z,68.98
2018-07-21T01:14:17.369Z,69.05
2018-07-21T01:16:43.687Z,69.56
2018-07-21T01:19:09.996Z,69.43
2018-07-21T01:21:36.308Z,69.87
2018-07-21T01:24:02.614Z,70.39
2018-07-21T01:26:28.923Z,70.76
2018-07-21T01:28:55.236Z,71.30
2018-07-21T01:31:21.588Z,71.77
2018-07-21T01:33:47.895Z,72.22
2018-07-21T01:36:14.208Z,72.45
2018-07-21T01:38:40.564Z,72.33
2018-07-21T01:41:06.876Z,72.51
2018-07-21T01:43:33.189Z,72.91
2018-07-21T01:45:59.499Z,73.35
2018-07-21T01:48:25.816Z,73.63
2018-07-21T01:50:52.133Z,73.92
2018-07-21T01:53:18.444Z,74.20
2018-07-21T01:55:44.763Z,74.65
2018-07-21T01:58:11.067Z,75.05
2018-07-21T02:00:37.384Z,75.29
2018-07-21T02:03:03.735Z,75.48
2018-07-21T02:05:30.047Z,75.66
2018-07-21T02:07:56.361Z,75.79
2018-07-21T02:10:22.681Z,76.19
2018-07-21T02:12:48.992Z,76.30
2018-07-21T02:15:15.304Z,76.50
2018-07-21T02:17:41.618Z,76.93
2018-07-21T02:20:07.936Z,77.12
2018-07-21T02:22:34.307Z,77.25
2018-07-21T02:25:00.563Z,77.43
2018-07-21T02:27:26.940Z,77.58
2018-07-21T02:29:53.230Z,77.81
2018-07-21T02:32:19.550Z,78.18
2018-07-21T02:34:45.869Z,78.67
2018-07-21T02:37:12.184Z,78.98
2018-07-21T02:39:38.494Z,79.34
2018-07-21T02:42:04.803Z,79.36
2018-07-21T02:44:31.114Z,79.69
2018-07-21T02:46:57.425Z,79.57
2018-07-21T02:49:23.732Z,79.46
2018-07-21T02:51:50.045Z,79.58
2018-07-21T02:54:16.356Z,79.35
2018-07-21T02:56:42.719Z,79.35
2018-07-21T02:59:09.035Z,79.90
2018-07-21T03:01:35.340Z,80.08
2018-07-21T03:04:01.652Z,79.69
2018-07-21T03:06:27.970Z,79.45
2018-07-21T03:08:54.347Z,79.77
2018-07-21T03:11:20.654Z,80.12
2018-07-21T03:13:46.998Z,80.10
2018-07-21T03:16:13.273Z,80.13
2018-07-21T03:18:39.587Z,80.13
2018-07-21T03:21:05.905Z,79.90
2018-07-21T03:23:32.218Z,79.59
2018-07-21T03:25:58.528Z,79.13
2018-07-21T03:28:24.836Z,79.16
2018-07-21T03:30:51.187Z,78.88
2018-07-21T03:33:17.468Z,79.09
2018-07-21T03:35:43.783Z,78.66
2018-07-21T03:38:10.087Z,78.78
2018-07-21T03:40:36.438Z,78.71
2018-07-21T03:43:02.719Z,78.35
2018-07-21T03:45:29.026Z,77.73
2018-07-21T03:47:55.354Z,77.52
2018-07-21T03:50:21.711Z,78.02
2018-07-21T03:52:48.020Z,77.58
2018-07-21T03:55:14.339Z,76.99
2018-07-21T03:57:40.651Z,76.79
2018-07-21T04:00:06.961Z,76.82
2018-07-21T04:02:33.273Z,76.53
2018-07-21T04:04:59.588Z,76.44
2018-07-21T04:07:25.908Z,76.58
2018-07-21T04:09:52.222Z,76.40
2018-07-21T04:12:18.577Z,76.01
2018-07-21T04:14:44.893Z,76.04
2018-07-21T04:17:11.203Z,75.88
2018-07-21T04:19:37.556Z,75.56
2018-07-21T04:22:03.867Z,75.50
2018-07-21T04:24:30.182Z,75.09
2018-07-21T04:26:56.494Z,74.75
2018-07-21T04:29:22.805Z,73.97
2018-07-21T04:31:49.121Z,73.96
2018-07-21T04:34:15.433Z,73.57
2018-07-21T04:36:41.747Z,73.07
2018-07-21T04:39:08.061Z,72.58
2018-07-21T04:41:34.376Z,72.51
2018-07-21T04:44:00.860Z,72.18
2018-07-21T04:46:27.161Z,71.90
2018-07-21T04:48:53.472Z,71.37
2018-07-21T04:51:19.783Z,70.82
2018-07-21T04:53:46.098Z,70.38
2018-07-21T04:56:12.409Z,70.31
2018-07-21T04:58:38.727Z,69.94
2018-07-21T05:01:05.098Z,69.58
2018-07-21T05:03:31.350Z,69.38
2018-07-21T05:05:57.665Z,68.92
2018-07-21T05:08:23.986Z,68.49
2018-07-21T05:10:50.294Z,67.76
2018-07-21T05:13:16.619Z,66.72
2018-07-21T05:15:42.933Z,65.52
2018-07-21T05:18:09.247Z,64.25
2018-07-21T05:20:35.557Z,63.30
2018-07-21T05:23:01.868Z,62.42
2018-07-21T05:25:28.189Z,61.70
2018-07-21T05:27:54.508Z,60.99
2018-07-21T05:30:20.822Z,60.12
2018-07-21T05:32:47.136Z,56.61
2018-07-21T05:35:13.483Z,52.21
2018-07-21T05:37:39.798Z,50.38
2018-07-21T05:40:06.111Z,49.61
2018-07-21T05:42:32.427Z,50.49
2018-07-21T05:44:58.778Z,50.68
2018-07-21T05:47:25.088Z,50.33
2018-07-21T05:49:51.405Z,47.87
2018-07-21T05:52:17.716Z,47.15
2018-07-21T05:54:44.029Z,47.15
2018-07-21T05:57:10.344Z,45.45
2018-07-21T05:59:36.654Z,46.34
2018-07-21T06:02:02.976Z,45.67
2018-07-21T06:04:29.284Z,45.59
2018-07-21T06:06:55.599Z,45.53
2018-07-21T06:09:21.911Z,45.61
2018-07-21T06:11:48.220Z,44.39
2018-07-21T06:14:14.533Z,45.05
2018-07-21T06:16:40.838Z,46.33
2018-07-21T06:19:07.199Z,46.68
2018-07-21T06:21:33.533Z,45.38
2018-07-21T06:23:59.832Z,45.29
2018-07-21T06:26:26.144Z,44.19
2018-07-21T06:28:52.521Z,43.14
2018-07-21T06:31:18.832Z,43.39
2018-07-21T06:33:45.145Z,43.25
2018-07-21T06:36:11.511Z,44.12
2018-07-21T06:38:37.814Z,45.76
2018-07-21T06:41:04.131Z,45.96
2018-07-21T06:43:30.446Z,44.77
2018-07-21T06:45:56.761Z,44.32
2018-07-21T06:48:23.117Z,44.25
2018-07-21T06:50:49.463Z,43.20
2018-07-21T06:53:15.819Z,42.07
2018-07-21T06:55:42.141Z,41.58
2018-07-21T06:58:08.448Z,41.62
2018-07-21T07:00:34.766Z,41.64
2018-07-21T07:03:01.087Z,41.00
2018-07-21T07:05:27.396Z,40.04
2018-07-21T07:07:53.706Z,39.53
2018-07-21T07:10:20.020Z,39.75
2018-07-21T07:12:46.333Z,40.06
2018-07-21T07:15:12.648Z,40.07
2018-07-21T07:17:38.960Z,39.40
2018-07-21T07:20:05.324Z,38.75
2018-07-21T07:22:31.654Z,39.56
2018-07-21T07:24:57.962Z,38.83
2018-07-21T07:27:24.298Z,38.75
2018-07-21T07:29:50.592Z,38.33
2018-07-21T07:32:16.900Z,37.59
2018-07-21T07:34:43.215Z,37.74
2018-07-21T07:37:09.575Z,37.79
2018-07-21T07:39:35.883Z,38.71
2018-07-21T07:42:02.282Z,39.28
2018-07-21T07:44:28.556Z,38.52
2018-07-21T07:46:54.876Z,37.55
2018-07-21T07:49:21.191Z,36.57
2018-07-21T07:51:47.504Z,36.54
2018-07-21T07:54:13.841Z,36.25
2018-07-21T07:56:40.175Z,35.80
2018-07-21T07:59:06.487Z,36.20
2018-07-21T08:01:32.801Z,36.39
2018-07-21T08:03:59.114Z,36.01
2018-07-21T08:06:25.428Z,36.23
2018-07-21T08:08:51.739Z,36.14
2018-07-21T08:11:18.052Z,35.92
2018-07-21T08:13:44.404Z,36.17
2018-07-21T08:16:10.721Z,35.10
2018-07-21T08:18:37.034Z,34.75
2018-07-21T08:21:03.343Z,34.74
2018-07-21T08:23:29.699Z,34.65
2018-07-21T08:25:56.009Z,34.83
2018-07-21T08:28:22.322Z,33.87
2018-07-21T08:30:48.633Z,34.02
2018-07-21T08:33:14.945Z,33.26
2018-07-21T08:35:41.256Z,32.52
2018-07-21T08:38:07.570Z,32.74
2018-07-21T08:40:33.884Z,33.58
2018-07-21T08:43:00.203Z,32.36
2018-07-21T08:45:26.569Z,32.17
2018-07-21T08:47:52.877Z,31.90
2018-07-21T08:50:19.194Z,32.42
2018-07-21T08:52:45.509Z,33.37
2018-07-21T08:55:11.828Z,33.44
2018-07-21T08:57:38.142Z,33.38
2018-07-21T09:00:04.514Z,32.91
2018-07-21T09:02:30.820Z,33.20
2018-07-21T09:04:57.171Z,32.43
2018-07-21T09:07:23.485Z,32.29
2018-07-21T09:09:49.800Z,32.63
2018-07-21T09:12:16.110Z,33.63
2018-07-21T09:14:42.421Z,33.44
2018-07-21T09:17:08.733Z,33.67
2018-07-21T09:19:35.045Z,32.98
2018-07-21T09:22:01.362Z,32.52
2018-07-21T09:24:27.677Z,31.43
2018-07-21T09:26:53.978Z,31.46
2018-07-21T09:29:20.340Z,29.81
2018-07-21T09:31:46.695Z,29.55
2018-07-21T09:36:39.319Z,32.21
2018-07-21T09:39:05.635Z,32.07
2018-07-21T09:41:31.951Z,32.07
2018-07-21T09:43:58.264Z,32.30
2018-07-21T09:46:24.587Z,32.14
2018-07-21T09:48:50.902Z,31.54
2018-07-21T09:51:17.226Z,31.41
2018-07-21T09:53:43.540Z,31.14
2018-07-21T09:56:09.864Z,30.80
2018-07-21T09:58:36.182Z,30.78
2018-07-21T10:01:02.500Z,32.24
2018-07-21T10:03:28.810Z,31.44
2018-07-21T10:05:55.129Z,31.67
2018-07-21T10:08:21.446Z,30.55
2018-07-21T10:10:47.769Z,30.63
2018-07-21T10:13:14.082Z,30.48
2018-07-21T10:15:40.403Z,30.25
2018-07-21T10:18:06.718Z,29.79
2018-07-21T10:20:33.028Z,29.93
2018-07-21T10:22:59.338Z,31.20
2018-07-21T10:25:25.658Z,30.64
2018-07-21T10:27:51.974Z,31.04
2018-07-21T10:30:18.313Z,31.17
2018-07-21T10:32:44.615Z,30.41
2018-07-21T10:35:10.932Z,29.41
2018-07-21T10:37:37.242Z,30.15
2018-07-21T10:40:03.559Z,30.04
2018-07-21T10:42:29.872Z,29.22
2018-07-21T10:44:56.223Z,30.88
2018-07-21T10:47:22.532Z,31.15
2018-07-21T10:49:48.849Z,31.15
2018-07-21T10:52:15.161Z,31.62
2018-07-21T10:54:41.469Z,31.42
2018-07-21T10:57:07.782Z,30.88
2018-07-21T10:59:34.124Z,31.19
2018-07-21T11:02:00.451Z,31.34
2018-07-21T11:04:26.759Z,30.31
2018-07-21T11:06:53.100Z,30.75
2018-07-21T11:09:19.411Z,31.10
2018-07-21T11:11:45.730Z,30.93
2018-07-21T11:14:12.047Z,31.73
2018-07-21T11:16:38.403Z,31.35
2018-07-21T11:19:04.718Z,32.04
2018-07-21T11:21:31.046Z,32.23
2018-07-21T11:23:57.366Z,33.78
2018-07-21T11:26:23.703Z,32.58
2018-07-21T11:28:50.017Z,32.30
2018-07-21T11:31:16.408Z,32.50
2018-07-21T11:33:42.720Z,32.32
2018-07-21T11:36:09.353Z,31.12
2018-07-21T11:38:35.383Z,31.19
2018-07-21T11:41:01.744Z,31.46
2018-07-21T11:43:28.071Z,31.31
2018-07-21T11:45:54.415Z,32.20
2018-07-21T11:48:20.806Z,32.43
2018-07-21T11:50:47.123Z,32.04
2018-07-21T11:53:13.475Z,32.03
2018-07-21T11:55:39.763Z,31.04
2018-07-21T11:58:06.127Z,32.08
2018-07-21T12:00:32.441Z,32.21
2018-07-21T12:02:58.769Z,32.36
2018-07-21T12:05:25.146Z,32.69
2018-07-21T12:07:51.412Z,31.96
2018-07-21T12:10:17.729Z,32.46
2018-07-21T12:12:44.098Z,32.93
2018-07-21T12:15:10.421Z,31.29
2018-07-21T12:17:36.739Z,31.69
2018-07-21T12:20:03.062Z,32.23
2018-07-21T12:22:29.376Z,31.94
2018-07-21T12:24:55.696Z,32.88
2018-07-21T12:27:22.067Z,32.50
2018-07-21T12:29:48.376Z,32.97
2018-07-21T12:32:14.689Z,32.24
2018-07-21T12:34:41.043Z,32.08
2018-07-21T12:37:07.356Z,32.65
2018-07-21T12:39:33.684Z,32.94
2018-07-21T12:41:59.997Z,33.05
2018-07-21T12:44:26.313Z,32.15
2018-07-21T12:46:52.670Z,32.90
2018-07-21T12:49:18.988Z,32.95
2018-07-21T12:51:45.309Z,33.43
2018-07-21T12:54:11.628Z,33.74
2018-07-21T12:56:37.947Z,33.35
2018-07-21T12:59:04.255Z,33.42
2018-07-21T13:01:30.571Z,32.91
2018-07-21T13:03:56.888Z,33.18
2018-07-21T13:06:23.199Z,34.54
2018-07-21T13:08:49.523Z,34.66
2018-07-21T13:11:15.880Z,34.95
2018-07-21T13:13:42.206Z,34.49
2018-07-21T13:16:08.588Z,34.08
2018-07-21T13:18:34.906Z,32.86
2018-07-21T13:21:01.257Z,33.08
2018-07-21T13:23:27.626Z,32.76
2018-07-21T13:25:53.943Z,34.17
2018-07-21T13:28:20.256Z,33.74
2018-07-21T13:30:46.567Z,33.24
2018-07-21T13:33:12.888Z,32.68
2018-07-21T13:35:39.197Z,32.24
2018-07-21T13:38:05.558Z,30.63
2018-07-21T13:40:31.896Z,31.82
2018-07-21T13:42:58.210Z,34.14
2018-07-21T13:45:24.532Z,34.19
2018-07-21T13:47:50.855Z,33.35
2018-07-21T13:50:17.177Z,33.60
2018-07-21T13:52:43.500Z,34.14
2018-07-21T13:55:09.810Z,33.49
2018-07-21T13:57:36.126Z,35.36
2018-07-21T14:00:02.445Z,35.25
2018-07-21T14:02:28.766Z,34.71
2018-07-21T14:04:55.077Z,34.79
2018-07-21T14:07:21.403Z,34.26
2018-07-21T14:09:47.718Z,33.57
2018-07-21T14:12:14.036Z,33.55
2018-07-21T14:14:40.356Z,33.97
2018-07-21T14:17:06.666Z,35.13
2018-07-21T14:19:32.975Z,35.01
2018-07-21T14:21:59.299Z,35.34
2018-07-21T14:24:25.616Z,34.89
2018-07-21T14:26:51.934Z,34.58
2018-07-21T14:29:18.290Z,34.61
2018-07-21T14:31:44.599Z,34.95
2018-07-21T14:34:10.918Z,35.86
2018-07-21T14:36:37.301Z,35.76
2018-07-21T14:39:03.600Z,35.87
2018-07-21T14:41:29.998Z,36.81
2018-07-21T14:43:56.311Z,37.26
2018-07-21T14:46:22.625Z,37.11
2018-07-21T14:48:48.981Z,36.84
2018-07-21T14:51:15.319Z,35.60
2018-07-21T14:53:41.637Z,36.75
2018-07-21T14:56:07.948Z,35.79
2018-07-21T14:58:34.268Z,36.41
2018-07-21T15:01:00.580Z,37.25
2018-07-21T15:03:26.891Z,37.36
2018-07-21T15:05:53.208Z,37.44
2018-07-21T15:08:19.522Z,36.80
2018-07-21T15:10:45.857Z,36.52
2018-07-21T15:13:12.163Z,36.55
2018-07-21T15:15:38.526Z,36.61
2018-07-21T15:18:04.843Z,36.92
2018-07-21T15:20:31.149Z,37.08
2018-07-21T15:22:57.461Z,36.34
2018-07-21T15:25:23.776Z,36.59
2018-07-21T15:27:50.098Z,37.13
2018-07-21T15:30:16.412Z,37.03
2018-07-21T15:32:42.729Z,37.66
2018-07-21T15:35:09.039Z,37.97
2018-07-21T15:37:35.352Z,38.53
2018-07-21T15:40:01.669Z,38.25
2018-07-21T15:42:27.996Z,38.32
2018-07-21T15:44:54.313Z,39.09
2018-07-21T15:47:20.627Z,39.07
2018-07-21T15:49:46.949Z,39.69
2018-07-21T15:52:13.261Z,39.48
2018-07-21T15:54:39.583Z,40.06
2018-07-21T15:57:05.925Z,38.62
2018-07-21T15:59:32.207Z,38.37
2018-07-21T16:01:58.537Z,38.27
2018-07-21T16:04:24.893Z,38.68
2018-07-21T16:06:51.207Z,38.95
2018-07-21T16:09:17.564Z,39.46
2018-07-21T16:11:43.896Z,39.83
2018-07-21T16:14:10.212Z,40.49
2018-07-21T16:16:36.565Z,40.97
2018-07-21T16:19:02.923Z,41.20
2018-07-21T16:21:29.237Z,40.97
2018-07-21T16:23:55.551Z,40.69
2018-07-21T16:26:21.874Z,40.84
2018-07-21T16:28:48.179Z,40.95
2018-07-21T16:31:14.492Z,41.03
2018-07-21T16:33:40.810Z,41.63
2018-07-21T16:36:07.125Z,41.57
2018-07-21T16:38:33.431Z,41.84
2018-07-21T16:40:59.752Z,42.12
2018-07-21T16:43:26.064Z,42.57
2018-07-21T16:45:52.386Z,42.73
2018-07-21T16:48:18.700Z,42.89
2018-07-21T16:50:45.013Z,42.40
2018-07-21T16:53:11.327Z,42.20
2018-07-21T16:55:37.635Z,41.97
2018-07-21T16:58:03.945Z,42.05
2018-07-21T17:00:30.251Z,42.11
2018-07-21T17:02:56.567Z,42.07
2018-07-21T17:05:22.902Z,42.28
2018-07-21T17:07:49.225Z,41.43
2018-07-21T17:10:15.535Z,41.63
2018-07-21T17:12:41.856Z,41.56
2018-07-21T17:15:08.168Z,41.95
2018-07-21T17:17:34.480Z,42.20
2018-07-21T17:20:00.800Z,42.30
2018-07-21T17:22:27.152Z,42.49
2018-07-21T17:24:53.459Z,42.88
2018-07-21T17:27:19.772Z,43.28
2018-07-21T17:29:46.175Z,43.56
2018-07-21T17:32:12.438Z,43.90
2018-07-21T17:34:38.747Z,44.00
2018-07-21T17:37:05.062Z,44.24
2018-07-21T17:39:31.434Z,44.48
2018-07-21T17:41:57.759Z,44.70
2018-07-21T17:44:24.080Z,44.92
2018-07-21T17:46:50.396Z,45.21
2018-07-21T17:49:16.710Z,45.38
2018-07-21T17:51:43.029Z,45.61
2018-07-21T17:54:09.351Z,45.79
2018-07-21T17:56:35.715Z,46.01
2018-07-21T17:59:02.032Z,46.43
2018-07-21T18:01:28.362Z,46.65
2018-07-21T18:03:54.691Z,47.24
2018-07-21T18:06:21.004Z,47.71
2018-07-21T18:08:47.316Z,47.94
2018-07-21T18:11:13.688Z,48.33
2018-07-21T18:13:40.014Z,48.91
2018-07-21T18:16:06.372Z,48.89
2018-07-21T18:18:32.730Z,49.25
2018-07-21T18:20:59.054Z,49.29
2018-07-21T18:23:25.369Z,49.64
2018-07-21T18:25:51.675Z,49.55
2018-07-21T18:28:18.007Z,49.55
2018-07-21T18:30:44.367Z,49.62
2018-07-21T18:33:10.695Z,50.09
2018-07-21T18:35:37.028Z,50.23
2018-07-21T18:38:03.348Z,50.11
2018-07-21T18:40:29.675Z,50.18
2018-07-21T18:42:55.982Z,50.32
2018-07-21T18:45:22.307Z,50.39
2018-07-21T18:47:48.599Z,49.92
2018-07-21T18:50:14.911Z,50.08
2018-07-21T18:52:41.243Z,50.29
2018-07-21T18:55:07.571Z,49.76
2018-07-21T18:57:33.880Z,50.15
2018-07-21T19:00:00.193Z,50.50
2018-07-21T19:02:26.519Z,50.98
2018-07-21T19:04:52.846Z,51.83
2018-07-21T19:07:19.173Z,52.63
2018-07-21T19:09:45.525Z,53.21
2018-07-21T19:12:11.861Z,53.61
2018-07-21T19:14:38.182Z,54.06
2018-07-21T19:17:04.497Z,54.55
2018-07-21T19:19:30.821Z,54.79
2018-07-21T19:21:57.172Z,55.36
2018-07-21T19:24:23.510Z,55.24
2018-07-21T19:26:49.827Z,55.46
2018-07-21T19:29:16.155Z,55.64
2018-07-21T19:31:42.477Z,55.99
2018-07-21T19:34:08.800Z,56.77
2018-07-21T19:36:35.131Z,56.62
2018-07-21T19:39:01.465Z,56.86
2018-07-21T19:41:27.774Z,57.09
2018-07-21T19:43:54.147Z,56.79
2018-07-21T19:46:20.479Z,57.35
2018-07-21T19:48:46.651Z,57.79
2018-07-21T19:51:12.989Z,58.36
2018-07-21T19:53:39.300Z,58.61
2018-07-21T19:56:05.652Z,58.73
2018-07-21T19:58:32.026Z,59.01
2018-07-21T20:00:58.415Z,59.49
2018-07-21T20:03:24.737Z,59.25
2018-07-21T20:05:51.063Z,59.25
2018-07-21T20:08:17.429Z,59.82
2018-07-21T20:10:43.768Z,59.88
2018-07-21T20:13:10.140Z,59.67
2018-07-21T20:15:36.501Z,59.71
2018-07-21T20:18:02.803Z,60.18
2018-07-21T20:20:29.183Z,60.44
2018-07-21T20:22:55.492Z,61.16
2018-07-21T20:25:21.817Z,61.41
2018-07-21T20:27:48.261Z,61.18
2018-07-21T20:30:14.633Z,61.36
2018-07-21T20:32:40.944Z,61.32
2018-07-21T20:35:07.262Z,61.39
2018-07-21T20:37:33.579Z,62.31
2018-07-21T20:39:59.898Z,61.96
2018-07-21T20:42:26.205Z,62.32
2018-07-21T20:44:52.520Z,62.27
2018-07-21T20:47:18.884Z,62.33
2018-07-21T20:49:45.205Z,62.62
2018-07-21T20:52:11.524Z,62.60
2018-07-21T20:54:37.884Z,63.10
2018-07-21T20:57:04.218Z,63.15
2018-07-21T20:59:30.574Z,63.88
2018-07-21T21:01:56.893Z,64.30
2018-07-21T21:04:23.213Z,63.99
2018-07-21T21:06:49.525Z,63.46
2018-07-21T21:09:15.845Z,63.57
2018-07-21T21:11:42.161Z,63.93
2018-07-21T21:14:08.485Z,64.83
2018-07-21T21:16:34.806Z,65.13
2018-07-21T21:19:01.138Z,65.17
2018-07-21T21:21:27.459Z,65.22
2018-07-21T21:23:53.778Z,65.27
2018-07-21T21:26:20.095Z,66.38
2018-07-21T21:28:46.410Z,67.13
2018-07-21T21:31:12.727Z,67.21
2018-07-21T21:33:39.043Z,66.91
2018-07-21T21:36:05.356Z,67.15
2018-07-21T21:38:31.677Z,67.45
2018-07-21T21:40:57.997Z,67.98
2018-07-21T21:43:24.311Z,68.06
2018-07-21T21:45:50.672Z,68.52
2018-07-21T21:48:17.024Z,68.44
2018-07-21T21:50:43.300Z,68.08
2018-07-21T21:53:09.626Z,67.62
2018-07-21T21:55:35.939Z,67.35
2018-07-21T21:58:02.254Z,65.75
2018-07-21T22:00:28.565Z,61.95
2018-07-21T22:02:54.875Z,59.99
2018-07-21T22:05:21.187Z,60.14
2018-07-21T22:07:47.498Z,60.05
2018-07-21T22:10:13.833Z,60.76
2018-07-21T22:12:40.164Z,59.63
2018-07-21T22:15:06.475Z,58.76
2018-07-21T22:17:32.789Z,59.24
2018-07-21T22:19:59.108Z,60.11
2018-07-21T22:22:25.449Z,61.48
2018-07-21T22:24:51.802Z,62.71
2018-07-21T22:27:18.112Z,62.38
2018-07-21T22:29:44.424Z,62.53
2018-07-21T22:32:10.736Z,63.45
2018-07-21T22:34:37.135Z,63.17
2018-07-21T22:37:03.429Z,64.05
2018-07-21T22:39:29.740Z,65.20
2018-07-21T22:41:56.047Z,65.07
2018-07-21T22:44:22.359Z,65.00
2018-07-21T22:46:48.668Z,64.69
2018-07-21T22:49:14.977Z,65.69
2018-07-21T22:51:41.288Z,65.76
2018-07-21T22:54:07.600Z,66.07
2018-07-21T22:56:33.916Z,66.73
2018-07-21T22:59:00.260Z,66.46
2018-07-21T23:01:26.576Z,67.04
2018-07-21T23:03:52.892Z,67.71
2018-07-21T23:06:19.212Z,67.37
2018-07-21T23:08:45.521Z,67.42
2018-07-21T23:11:11.873Z,68.71
2018-07-21T23:13:38.180Z,69.05
2018-07-21T23:16:04.493Z,68.72
2018-07-21T23:18:30.807Z,68.92
2018-07-21T23:20:57.116Z,69.62
2018-07-21T23:23:23.476Z,70.43
2018-07-21T23:25:49.785Z,70.67
2018-07-21T23:28:16.103Z,71.24
2018-07-21T23:30:42.414Z,71.27
2018-07-21T23:33:08.734Z,69.11
2018-07-21T23:35:35.043Z,66.75
2018-07-21T23:38:01.351Z,66.69
2018-07-21T23:40:27.659Z,67.54
2018-07-21T23:42:53.968Z,66.45
2018-07-21T23:45:20.283Z,65.98
2018-07-21T23:47:46.595Z,65.18
2018-07-21T23:50:12.905Z,65.45
2018-07-21T23:52:39.211Z,65.63
2018-07-21T23:55:05.520Z,64.96
2018-07-21T23:57:31.833Z,66.31
2018-07-21T23:59:58.139Z,66.36
